sensor_id;sensor_type;location;lat;lon;timestamp;temperature;humidity
46758;DHT22;32509;47.750;-3.396;2023-07-13T00:00:13;19.00;99.90
46758;DHT22;32509;47.750;-3.396;2023-07-13T00:02:42;19.00;99.90
46758;DHT22;32509;47.750;-3.396;2023-07-13T00:05:08;19.00;99.90
46758;DHT22;32509;47.750;-3.396;2023-07-13T00:07:35;19.00;99.90
46758;DHT22;32509;47.750;-3.396;2023-07-13T00:10:02;19.00;99.90
46758;DHT22;32509;47.750;-3.396;2023-07-13T00:12:31;19.00;99.90
46758;DHT22;32509;47.750;-3.396;2023-07-13T00:14:58;19.00;99.90
46758;DHT22;32509;47.750;-3.396;2023-07-13T00:17:26;19.10;99.90
46758;DHT22;32509;47.750;-3.396;2023-07-13T00:19:52;19.00;99.90
46758;DHT22;32509;47.750;-3.396;2023-07-13T00:22:19;19.00;99.90
46758;DHT22;32509;47.750;-3.396;2023-07-13T00:24:48;19.00;99.90
46758;DHT22;32509;47.750;-3.396;2023-07-13T00:27:14;19.00;99.90
46758;DHT22;32509;47.750;-3.396;2023-07-13T00:29:40;19.00;99.90
46758;DHT22;32509;47.750;-3.396;2023-07-13T00:32:06;19.00;99.90
46758;DHT22;32509;47.750;-3.396;2023-07-13T00:34:32;19.00;99.90
46758;DHT22;32509;47.750;-3.396;2023-07-13T00:36:59;19.00;99.90
46758;DHT22;32509;47.750;-3.396;2023-07-13T00:39:25;19.00;99.90
46758;DHT22;32509;47.750;-3.396;2023-07-13T00:41:51;19.00;99.90
46758;DHT22;32509;47.750;-3.396;2023-07-13T00:44:19;19.00;99.90
46758;DHT22;32509;47.750;-3.396;2023-07-13T00:46:45;19.00;99.90
46758;DHT22;32509;47.750;-3.396;2023-07-13T00:49:15;19.00;99.90
46758;DHT22;32509;47.750;-3.396;2023-07-13T00:51:49;19.00;99.90
46758;DHT22;32509;47.750;-3.396;2023-07-13T00:54:16;19.00;99.90
46758;DHT22;32509;47.750;-3.396;2023-07-13T00:56:45;19.00;99.90
46758;DHT22;32509;47.750;-3.396;2023-07-13T00:59:13;19.10;99.90
46758;DHT22;32509;47.750;-3.396;2023-07-13T01:01:40;19.00;99.90
46758;DHT22;32509;47.750;-3.396;2023-07-13T01:04:06;19.00;99.90
46758;DHT22;32509;47.750;-3.396;2023-07-13T01:06:36;19.00;99.90
46758;DHT22;32509;47.750;-3.396;2023-07-13T01:09:02;19.00;99.90
46758;DHT22;32509;47.750;-3.396;2023-07-13T01:11:28;19.00;99.90
46758;DHT22;32509;47.750;-3.396;2023-07-13T01:13:54;19.00;99.90
46758;DHT22;32509;47.750;-3.396;2023-07-13T01:16:26;19.00;99.90
46758;DHT22;32509;47.750;-3.396;2023-07-13T01:18:52;19.00;99.90
46758;DHT22;32509;47.750;-3.396;2023-07-13T01:21:18;19.00;99.90
46758;DHT22;32509;47.750;-3.396;2023-07-13T01:23:45;19.00;99.90
46758;DHT22;32509;47.750;-3.396;2023-07-13T01:26:11;19.00;99.90
46758;DHT22;32509;47.750;-3.396;2023-07-13T01:28:38;19.00;99.90
46758;DHT22;32509;47.750;-3.396;2023-07-13T01:31:04;19.00;99.90
46758;DHT22;32509;47.750;-3.396;2023-07-13T01:33:29;19.00;99.90
46758;DHT22;32509;47.750;-3.396;2023-07-13T01:35:55;19.00;99.90
46758;DHT22;32509;47.750;-3.396;2023-07-13T01:38:24;19.00;99.90
46758;DHT22;32509;47.750;-3.396;2023-07-13T01:40:51;19.00;99.90
46758;DHT22;32509;47.750;-3.396;2023-07-13T01:43:18;19.00;99.90
46758;DHT22;32509;47.750;-3.396;2023-07-13T01:45:44;19.00;99.90
46758;DHT22;32509;47.750;-3.396;2023-07-13T01:48:11;19.00;99.90
46758;DHT22;32509;47.750;-3.396;2023-07-13T01:50:37;19.00;99.90
46758;DHT22;32509;47.750;-3.396;2023-07-13T01:53:04;19.00;99.90
46758;DHT22;32509;47.750;-3.396;2023-07-13T01:55:30;19.00;99.90
46758;DHT22;32509;47.750;-3.396;2023-07-13T01:57:56;19.00;99.90
46758;DHT22;32509;47.750;-3.396;2023-07-13T02:00:22;19.00;99.90
46758;DHT22;32509;47.750;-3.396;2023-07-13T02:02:48;19.00;99.90
46758;DHT22;32509;47.750;-3.396;2023-07-13T02:05:14;19.00;99.90
46758;DHT22;32509;47.750;-3.396;2023-07-13T02:07:40;19.00;99.90
46758;DHT22;32509;47.750;-3.396;2023-07-13T02:10:08;19.00;99.90
46758;DHT22;32509;47.750;-3.396;2023-07-13T02:12:37;19.00;99.90
46758;DHT22;32509;47.750;-3.396;2023-07-13T02:15:03;19.00;99.90
46758;DHT22;32509;47.750;-3.396;2023-07-13T02:17:30;19.00;99.90
46758;DHT22;32509;47.750;-3.396;2023-07-13T02:19:56;19.00;99.90
46758;DHT22;32509;47.750;-3.396;2023-07-13T02:22:22;19.00;99.90
46758;DHT22;32509;47.750;-3.396;2023-07-13T02:24:48;19.00;99.90
46758;DHT22;32509;47.750;-3.396;2023-07-13T02:27:14;19.00;99.90
46758;DHT22;32509;47.750;-3.396;2023-07-13T02:29:40;19.00;99.90
46758;DHT22;32509;47.750;-3.396;2023-07-13T02:32:06;19.00;99.90
46758;DHT22;32509;47.750;-3.396;2023-07-13T02:34:32;19.00;99.90
46758;DHT22;32509;47.750;-3.396;2023-07-13T02:36:58;19.00;99.90
46758;DHT22;32509;47.750;-3.396;2023-07-13T02:39:23;19.00;99.90
46758;DHT22;32509;47.750;-3.396;2023-07-13T02:41:49;19.00;99.90
46758;DHT22;32509;47.750;-3.396;2023-07-13T02:44:15;19.00;99.90
46758;DHT22;32509;47.750;-3.396;2023-07-13T02:46:41;19.00;99.90
46758;DHT22;32509;47.750;-3.396;2023-07-13T02:49:07;19.00;99.90
46758;DHT22;32509;47.750;-3.396;2023-07-13T02:51:32;19.00;99.90
46758;DHT22;32509;47.750;-3.396;2023-07-13T02:54:02;19.00;99.90
46758;DHT22;32509;47.750;-3.396;2023-07-13T02:56:30;19.00;99.90
46758;DHT22;32509;47.750;-3.396;2023-07-13T02:58:57;19.00;99.90
46758;DHT22;32509;47.750;-3.396;2023-07-13T03:01:24;19.00;99.90
46758;DHT22;32509;47.750;-3.396;2023-07-13T03:03:51;19.00;99.90
46758;DHT22;32509;47.750;-3.396;2023-07-13T03:06:17;19.00;99.90
46758;DHT22;32509;47.750;-3.396;2023-07-13T03:08:44;19.00;99.90
46758;DHT22;32509;47.750;-3.396;2023-07-13T03:11:15;19.00;99.90
46758;DHT22;32509;47.750;-3.396;2023-07-13T03:13:42;19.00;99.90
46758;DHT22;32509;47.750;-3.396;2023-07-13T03:16:09;19.00;99.90
46758;DHT22;32509;47.750;-3.396;2023-07-13T03:18:36;19.00;99.90
46758;DHT22;32509;47.750;-3.396;2023-07-13T03:21:02;19.00;99.90
46758;DHT22;32509;47.750;-3.396;2023-07-13T03:23:28;19.00;99.90
46758;DHT22;32509;47.750;-3.396;2023-07-13T03:26:08;19.00;99.90
46758;DHT22;32509;47.750;-3.396;2023-07-13T03:28:35;19.00;99.90
46758;DHT22;32509;47.750;-3.396;2023-07-13T03:31:08;19.00;99.90
46758;DHT22;32509;47.750;-3.396;2023-07-13T03:33:35;19.00;99.90
46758;DHT22;32509;47.750;-3.396;2023-07-13T03:36:02;19.00;99.90
46758;DHT22;32509;47.750;-3.396;2023-07-13T03:38:28;19.00;99.90
46758;DHT22;32509;47.750;-3.396;2023-07-13T03:40:54;19.00;99.90
46758;DHT22;32509;47.750;-3.396;2023-07-13T03:43:20;19.00;99.90
46758;DHT22;32509;47.750;-3.396;2023-07-13T03:45:46;19.00;99.90
46758;DHT22;32509;47.750;-3.396;2023-07-13T03:48:13;19.00;99.90
46758;DHT22;32509;47.750;-3.396;2023-07-13T03:50:39;19.00;99.90
46758;DHT22;32509;47.750;-3.396;2023-07-13T03:53:05;19.00;99.90
46758;DHT22;32509;47.750;-3.396;2023-07-13T03:55:31;19.00;99.90
46758;DHT22;32509;47.750;-3.396;2023-07-13T03:58:23;18.90;99.90
46758;DHT22;32509;47.750;-3.396;2023-07-13T04:00:46;18.90;99.90
46758;DHT22;32509;47.750;-3.396;2023-07-13T04:03:15;19.00;99.90
46758;DHT22;32509;47.750;-3.396;2023-07-13T04:05:41;19.00;99.90
46758;DHT22;32509;47.750;-3.396;2023-07-13T04:08:07;18.90;99.90
46758;DHT22;32509;47.750;-3.396;2023-07-13T04:10:33;19.00;99.90
46758;DHT22;32509;47.750;-3.396;2023-07-13T04:12:59;18.90;99.90
46758;DHT22;32509;47.750;-3.396;2023-07-13T04:15:25;19.00;99.90
46758;DHT22;32509;47.750;-3.396;2023-07-13T04:17:50;19.00;99.90
46758;DHT22;32509;47.750;-3.396;2023-07-13T04:20:16;18.90;99.90
46758;DHT22;32509;47.750;-3.396;2023-07-13T04:22:42;18.90;99.90
46758;DHT22;32509;47.750;-3.396;2023-07-13T04:25:08;19.00;99.90
46758;DHT22;32509;47.750;-3.396;2023-07-13T04:27:33;18.90;99.90
46758;DHT22;32509;47.750;-3.396;2023-07-13T04:29:59;18.90;99.90
46758;DHT22;32509;47.750;-3.396;2023-07-13T04:32:25;18.90;99.90
46758;DHT22;32509;47.750;-3.396;2023-07-13T04:34:51;18.90;99.90
46758;DHT22;32509;47.750;-3.396;2023-07-13T04:37:19;18.90;99.90
46758;DHT22;32509;47.750;-3.396;2023-07-13T04:39:45;18.90;99.90
46758;DHT22;32509;47.750;-3.396;2023-07-13T04:42:10;18.90;99.90
46758;DHT22;32509;47.750;-3.396;2023-07-13T04:44:36;18.90;99.90
46758;DHT22;32509;47.750;-3.396;2023-07-13T04:47:02;18.90;99.90
46758;DHT22;32509;47.750;-3.396;2023-07-13T04:49:28;18.90;99.90
46758;DHT22;32509;47.750;-3.396;2023-07-13T04:51:54;18.90;99.90
46758;DHT22;32509;47.750;-3.396;2023-07-13T04:54:20;18.90;99.90
46758;DHT22;32509;47.750;-3.396;2023-07-13T04:56:47;18.90;99.90
46758;DHT22;32509;47.750;-3.396;2023-07-13T04:59:13;18.90;99.90
46758;DHT22;32509;47.750;-3.396;2023-07-13T05:01:39;18.90;99.90
46758;DHT22;32509;47.750;-3.396;2023-07-13T05:04:06;18.90;99.90
46758;DHT22;32509;47.750;-3.396;2023-07-13T05:06:32;18.90;99.90
46758;DHT22;32509;47.750;-3.396;2023-07-13T05:08:58;18.90;99.90
46758;DHT22;32509;47.750;-3.396;2023-07-13T05:11:24;18.90;99.90
46758;DHT22;32509;47.750;-3.396;2023-07-13T05:13:49;18.90;99.90
46758;DHT22;32509;47.750;-3.396;2023-07-13T05:16:15;18.90;99.90
46758;DHT22;32509;47.750;-3.396;2023-07-13T05:18:41;18.90;99.90
46758;DHT22;32509;47.750;-3.396;2023-07-13T05:21:09;18.90;99.90
46758;DHT22;32509;47.750;-3.396;2023-07-13T05:23:36;18.90;99.90
46758;DHT22;32509;47.750;-3.396;2023-07-13T05:26:03;18.90;99.90
46758;DHT22;32509;47.750;-3.396;2023-07-13T05:28:30;18.90;99.90
46758;DHT22;32509;47.750;-3.396;2023-07-13T05:30:57;18.90;99.90
46758;DHT22;32509;47.750;-3.396;2023-07-13T05:33:23;18.90;99.90
46758;DHT22;32509;47.750;-3.396;2023-07-13T05:35:49;18.90;99.90
46758;DHT22;32509;47.750;-3.396;2023-07-13T05:38:15;18.90;99.90
46758;DHT22;32509;47.750;-3.396;2023-07-13T05:40:43;18.90;99.90
46758;DHT22;32509;47.750;-3.396;2023-07-13T05:43:09;18.90;99.90
46758;DHT22;32509;47.750;-3.396;2023-07-13T05:45:35;18.90;99.90
46758;DHT22;32509;47.750;-3.396;2023-07-13T05:48:01;18.90;99.90
46758;DHT22;32509;47.750;-3.396;2023-07-13T05:50:27;18.90;99.90
46758;DHT22;32509;47.750;-3.396;2023-07-13T05:52:53;18.90;99.90
46758;DHT22;32509;47.750;-3.396;2023-07-13T05:55:20;18.90;99.90
46758;DHT22;32509;47.750;-3.396;2023-07-13T05:57:45;18.90;99.90
46758;DHT22;32509;47.750;-3.396;2023-07-13T06:00:12;18.90;99.90
46758;DHT22;32509;47.750;-3.396;2023-07-13T06:02:37;18.90;99.90
46758;DHT22;32509;47.750;-3.396;2023-07-13T06:05:04;18.90;99.90
46758;DHT22;32509;47.750;-3.396;2023-07-13T06:07:30;18.90;99.90
46758;DHT22;32509;47.750;-3.396;2023-07-13T06:09:55;18.90;99.90
46758;DHT22;32509;47.750;-3.396;2023-07-13T06:12:21;19.00;99.90
46758;DHT22;32509;47.750;-3.396;2023-07-13T06:14:47;18.90;99.90
46758;DHT22;32509;47.750;-3.396;2023-07-13T06:17:13;19.00;99.90
46758;DHT22;32509;47.750;-3.396;2023-07-13T06:19:38;19.00;99.90
46758;DHT22;32509;47.750;-3.396;2023-07-13T06:22:04;19.00;99.90
46758;DHT22;32509;47.750;-3.396;2023-07-13T06:24:30;19.00;99.90
46758;DHT22;32509;47.750;-3.396;2023-07-13T06:26:56;19.00;99.90
46758;DHT22;32509;47.750;-3.396;2023-07-13T06:29:22;19.00;99.90
46758;DHT22;32509;47.750;-3.396;2023-07-13T06:31:48;19.10;99.90
46758;DHT22;32509;47.750;-3.396;2023-07-13T06:34:13;19.00;99.90
46758;DHT22;32509;47.750;-3.396;2023-07-13T06:36:39;19.00;99.90
46758;DHT22;32509;47.750;-3.396;2023-07-13T06:39:07;19.10;99.90
46758;DHT22;32509;47.750;-3.396;2023-07-13T06:41:32;19.00;99.90
46758;DHT22;32509;47.750;-3.396;2023-07-13T06:43:58;19.10;99.90
46758;DHT22;32509;47.750;-3.396;2023-07-13T06:46:24;19.10;99.90
46758;DHT22;32509;47.750;-3.396;2023-07-13T06:48:51;19.10;99.90
46758;DHT22;32509;47.750;-3.396;2023-07-13T06:51:17;19.10;99.90
46758;DHT22;32509;47.750;-3.396;2023-07-13T06:53:43;19.10;99.90
46758;DHT22;32509;47.750;-3.396;2023-07-13T06:56:10;19.10;99.90
46758;DHT22;32509;47.750;-3.396;2023-07-13T06:58:36;19.10;99.90
46758;DHT22;32509;47.750;-3.396;2023-07-13T07:01:03;19.10;99.90
46758;DHT22;32509;47.750;-3.396;2023-07-13T07:03:29;19.10;99.90
46758;DHT22;32509;47.750;-3.396;2023-07-13T07:06:01;19.10;99.90
46758;DHT22;32509;47.750;-3.396;2023-07-13T07:08:26;19.10;99.90
46758;DHT22;32509;47.750;-3.396;2023-07-13T07:10:52;19.10;99.90
46758;DHT22;32509;47.750;-3.396;2023-07-13T07:13:19;19.20;99.90
46758;DHT22;32509;47.750;-3.396;2023-07-13T07:15:45;19.20;99.90
46758;DHT22;32509;47.750;-3.396;2023-07-13T07:18:11;19.20;99.90
46758;DHT22;32509;47.750;-3.396;2023-07-13T07:20:37;19.20;99.90
46758;DHT22;32509;47.750;-3.396;2023-07-13T07:23:03;19.20;99.90
46758;DHT22;32509;47.750;-3.396;2023-07-13T07:25:29;19.20;99.90
46758;DHT22;32509;47.750;-3.396;2023-07-13T07:27:57;19.20;99.90
46758;DHT22;32509;47.750;-3.396;2023-07-13T07:30:24;19.30;99.90
46758;DHT22;32509;47.750;-3.396;2023-07-13T07:32:50;19.30;99.90
46758;DHT22;32509;47.750;-3.396;2023-07-13T07:35:16;19.30;99.90
46758;DHT22;32509;47.750;-3.396;2023-07-13T07:37:42;19.30;99.90
46758;DHT22;32509;47.750;-3.396;2023-07-13T07:40:08;19.30;99.90
46758;DHT22;32509;47.750;-3.396;2023-07-13T07:42:34;19.30;99.90
46758;DHT22;32509;47.750;-3.396;2023-07-13T07:45:00;19.30;99.90
46758;DHT22;32509;47.750;-3.396;2023-07-13T07:47:26;19.40;99.90
46758;DHT22;32509;47.750;-3.396;2023-07-13T07:49:52;19.40;99.90
46758;DHT22;32509;47.750;-3.396;2023-07-13T07:52:18;19.40;99.90
46758;DHT22;32509;47.750;-3.396;2023-07-13T07:54:44;19.40;99.90
46758;DHT22;32509;47.750;-3.396;2023-07-13T07:57:10;19.40;99.90
46758;DHT22;32509;47.750;-3.396;2023-07-13T07:59:37;19.40;99.90
46758;DHT22;32509;47.750;-3.396;2023-07-13T08:02:03;19.40;99.90
46758;DHT22;32509;47.750;-3.396;2023-07-13T08:04:29;19.40;99.90
46758;DHT22;32509;47.750;-3.396;2023-07-13T08:06:55;19.40;99.90
46758;DHT22;32509;47.750;-3.396;2023-07-13T08:09:22;19.50;99.90
46758;DHT22;32509;47.750;-3.396;2023-07-13T08:11:47;19.50;99.90
46758;DHT22;32509;47.750;-3.396;2023-07-13T08:14:13;19.50;99.90
46758;DHT22;32509;47.750;-3.396;2023-07-13T08:16:39;19.50;99.90
46758;DHT22;32509;47.750;-3.396;2023-07-13T08:19:05;19.50;99.90
46758;DHT22;32509;47.750;-3.396;2023-07-13T08:21:31;19.50;99.90
46758;DHT22;32509;47.750;-3.396;2023-07-13T08:23:57;19.60;99.90
46758;DHT22;32509;47.750;-3.396;2023-07-13T08:26:23;19.60;99.90
46758;DHT22;32509;47.750;-3.396;2023-07-13T08:28:49;19.60;99.90
46758;DHT22;32509;47.750;-3.396;2023-07-13T08:31:15;19.60;99.90
46758;DHT22;32509;47.750;-3.396;2023-07-13T08:33:41;19.60;99.90
46758;DHT22;32509;47.750;-3.396;2023-07-13T08:36:06;19.60;99.90
46758;DHT22;32509;47.750;-3.396;2023-07-13T08:38:32;19.60;99.90
46758;DHT22;32509;47.750;-3.396;2023-07-13T08:40:58;19.60;99.90
46758;DHT22;32509;47.750;-3.396;2023-07-13T08:43:35;19.60;99.90
46758;DHT22;32509;47.750;-3.396;2023-07-13T08:48:47;19.60;99.90
46758;DHT22;32509;47.750;-3.396;2023-07-13T08:51:28;19.60;99.90
46758;DHT22;32509;47.750;-3.396;2023-07-13T08:53:59;19.70;99.90
46758;DHT22;32509;47.750;-3.396;2023-07-13T08:56:28;19.70;99.90
46758;DHT22;32509;47.750;-3.396;2023-07-13T08:59:03;19.70;99.90
46758;DHT22;32509;47.750;-3.396;2023-07-13T09:01:47;19.70;99.90
46758;DHT22;32509;47.750;-3.396;2023-07-13T09:04:19;19.70;99.90
46758;DHT22;32509;47.750;-3.396;2023-07-13T09:11:47;19.80;99.90
46758;DHT22;32509;47.750;-3.396;2023-07-13T09:14:36;19.80;99.90
46758;DHT22;32509;47.750;-3.396;2023-07-13T09:17:10;19.80;99.90
46758;DHT22;32509;47.750;-3.396;2023-07-13T09:19:37;19.80;99.90
46758;DHT22;32509;47.750;-3.396;2023-07-13T09:22:11;19.80;99.90
46758;DHT22;32509;47.750;-3.396;2023-07-13T09:25:05;19.80;99.90
46758;DHT22;32509;47.750;-3.396;2023-07-13T09:27:39;19.80;99.90
46758;DHT22;32509;47.750;-3.396;2023-07-13T09:32:41;19.90;99.90
46758;DHT22;32509;47.750;-3.396;2023-07-13T09:35:15;19.90;99.90
46758;DHT22;32509;47.750;-3.396;2023-07-13T09:37:43;19.90;99.90
46758;DHT22;32509;47.750;-3.396;2023-07-13T09:40:17;20.00;99.90
46758;DHT22;32509;47.750;-3.396;2023-07-13T09:42:45;20.00;99.90
46758;DHT22;32509;47.750;-3.396;2023-07-13T09:45:26;20.00;99.90
46758;DHT22;32509;47.750;-3.396;2023-07-13T09:48:00;20.00;99.90
46758;DHT22;32509;47.750;-3.396;2023-07-13T09:50:28;20.00;99.90
46758;DHT22;32509;47.750;-3.396;2023-07-13T09:52:55;20.00;99.90
46758;DHT22;32509;47.750;-3.396;2023-07-13T09:55:37;20.00;99.90
46758;DHT22;32509;47.750;-3.396;2023-07-13T09:58:15;20.10;99.90
46758;DHT22;32509;47.750;-3.396;2023-07-13T10:00:43;20.10;99.90
46758;DHT22;32509;47.750;-3.396;2023-07-13T10:03:22;20.10;99.90
46758;DHT22;32509;47.750;-3.396;2023-07-13T10:05:51;20.10;99.90
46758;DHT22;32509;47.750;-3.396;2023-07-13T10:08:20;20.10;99.90
46758;DHT22;32509;47.750;-3.396;2023-07-13T10:10:46;20.10;99.90
46758;DHT22;32509;47.750;-3.396;2023-07-13T10:13:32;20.10;99.90
46758;DHT22;32509;47.750;-3.396;2023-07-13T10:16:00;20.10;99.90
46758;DHT22;32509;47.750;-3.396;2023-07-13T10:18:27;20.10;99.90
46758;DHT22;32509;47.750;-3.396;2023-07-13T10:21:15;20.20;99.90
46758;DHT22;32509;47.750;-3.396;2023-07-13T10:23:43;20.20;99.90
46758;DHT22;32509;47.750;-3.396;2023-07-13T10:26:19;20.20;99.90
46758;DHT22;32509;47.750;-3.396;2023-07-13T10:28:51;20.30;99.90
46758;DHT22;32509;47.750;-3.396;2023-07-13T10:31:19;20.30;99.90
46758;DHT22;32509;47.750;-3.396;2023-07-13T10:33:45;20.40;99.90
46758;DHT22;32509;47.750;-3.396;2023-07-13T10:36:24;20.40;99.90
46758;DHT22;32509;47.750;-3.396;2023-07-13T10:38:53;20.40;99.90
46758;DHT22;32509;47.750;-3.396;2023-07-13T10:41:25;20.40;99.90
46758;DHT22;32509;47.750;-3.396;2023-07-13T10:43:53;20.40;99.90
46758;DHT22;32509;47.750;-3.396;2023-07-13T10:46:23;20.40;99.90
46758;DHT22;32509;47.750;-3.396;2023-07-13T10:48:58;20.50;99.90
46758;DHT22;32509;47.750;-3.396;2023-07-13T10:51:26;20.50;99.90
46758;DHT22;32509;47.750;-3.396;2023-07-13T10:54:14;20.50;99.90
46758;DHT22;32509;47.750;-3.396;2023-07-13T10:56:42;20.50;99.90
46758;DHT22;32509;47.750;-3.396;2023-07-13T10:59:25;20.50;99.90
46758;DHT22;32509;47.750;-3.396;2023-07-13T11:02:13;20.50;99.90
46758;DHT22;32509;47.750;-3.396;2023-07-13T11:04:44;20.60;99.90
46758;DHT22;32509;47.750;-3.396;2023-07-13T11:07:21;20.60;99.90
46758;DHT22;32509;47.750;-3.396;2023-07-13T11:09:59;20.60;99.90
46758;DHT22;32509;47.750;-3.396;2023-07-13T11:12:26;20.60;99.90
46758;DHT22;32509;47.750;-3.396;2023-07-13T11:22:50;20.60;99.90
46758;DHT22;32509;47.750;-3.396;2023-07-13T11:27:50;20.70;99.90
46758;DHT22;32509;47.750;-3.396;2023-07-13T11:32:42;20.80;99.90
46758;DHT22;32509;47.750;-3.396;2023-07-13T11:35:22;20.80;99.90
46758;DHT22;32509;47.750;-3.396;2023-07-13T11:37:50;20.80;99.90
46758;DHT22;32509;47.750;-3.396;2023-07-13T11:40:16;20.90;99.90
46758;DHT22;32509;47.750;-3.396;2023-07-13T11:42:42;20.90;99.90
46758;DHT22;32509;47.750;-3.396;2023-07-13T11:45:21;20.90;99.90
46758;DHT22;32509;47.750;-3.396;2023-07-13T11:47:50;20.90;99.90
46758;DHT22;32509;47.750;-3.396;2023-07-13T11:50:19;21.00;99.90
46758;DHT22;32509;47.750;-3.396;2023-07-13T11:52:45;21.00;99.90
46758;DHT22;32509;47.750;-3.396;2023-07-13T11:55:17;21.00;99.90
46758;DHT22;32509;47.750;-3.396;2023-07-13T11:58:00;21.10;99.90
46758;DHT22;32509;47.750;-3.396;2023-07-13T12:00:29;21.10;99.90
46758;DHT22;32509;47.750;-3.396;2023-07-13T12:02:59;21.00;99.90
46758;DHT22;32509;47.750;-3.396;2023-07-13T12:05:26;21.00;99.90
46758;DHT22;32509;47.750;-3.396;2023-07-13T12:07:53;21.00;99.90
46758;DHT22;32509;47.750;-3.396;2023-07-13T12:10:20;21.10;99.90
46758;DHT22;32509;47.750;-3.396;2023-07-13T12:15:14;21.10;99.90
46758;DHT22;32509;47.750;-3.396;2023-07-13T12:17:41;21.00;99.90
46758;DHT22;32509;47.750;-3.396;2023-07-13T12:20:24;21.00;99.90
46758;DHT22;32509;47.750;-3.396;2023-07-13T12:22:51;21.00;99.90
46758;DHT22;32509;47.750;-3.396;2023-07-13T12:25:17;21.10;99.90
46758;DHT22;32509;47.750;-3.396;2023-07-13T12:27:47;21.00;99.90
46758;DHT22;32509;47.750;-3.396;2023-07-13T12:30:30;21.00;99.90
46758;DHT22;32509;47.750;-3.396;2023-07-13T12:33:07;21.00;99.90
46758;DHT22;32509;47.750;-3.396;2023-07-13T12:35:49;21.00;99.90
46758;DHT22;32509;47.750;-3.396;2023-07-13T12:38:16;20.90;99.90
46758;DHT22;32509;47.750;-3.396;2023-07-13T12:40:42;21.00;99.90
46758;DHT22;32509;47.750;-3.396;2023-07-13T12:43:14;21.00;99.90
46758;DHT22;32509;47.750;-3.396;2023-07-13T12:46:02;21.00;99.90
46758;DHT22;32509;47.750;-3.396;2023-07-13T12:48:28;21.00;99.90
46758;DHT22;32509;47.750;-3.396;2023-07-13T12:50:55;21.10;99.90
46758;DHT22;32509;47.750;-3.396;2023-07-13T12:53:27;21.10;99.90
46758;DHT22;32509;47.750;-3.396;2023-07-13T12:55:56;21.10;99.90
46758;DHT22;32509;47.750;-3.396;2023-07-13T12:58:38;21.00;99.90
46758;DHT22;32509;47.750;-3.396;2023-07-13T13:01:09;21.00;99.90
46758;DHT22;32509;47.750;-3.396;2023-07-13T13:03:38;21.10;99.90
46758;DHT22;32509;47.750;-3.396;2023-07-13T13:08:49;21.10;99.90
46758;DHT22;32509;47.750;-3.396;2023-07-13T13:11:16;21.20;99.90
46758;DHT22;32509;47.750;-3.396;2023-07-13T13:13:43;21.10;99.90
46758;DHT22;32509;47.750;-3.396;2023-07-13T13:18:40;21.10;99.90
46758;DHT22;32509;47.750;-3.396;2023-07-13T13:21:06;21.10;99.90
46758;DHT22;32509;47.750;-3.396;2023-07-13T13:23:32;21.10;99.90
46758;DHT22;32509;47.750;-3.396;2023-07-13T13:25:58;21.10;99.90
46758;DHT22;32509;47.750;-3.396;2023-07-13T13:28:24;21.10;99.90
46758;DHT22;32509;47.750;-3.396;2023-07-13T13:30:51;21.10;99.90
46758;DHT22;32509;47.750;-3.396;2023-07-13T13:33:19;21.10;99.90
46758;DHT22;32509;47.750;-3.396;2023-07-13T13:35:45;21.10;99.90
46758;DHT22;32509;47.750;-3.396;2023-07-13T13:38:16;21.10;99.90
46758;DHT22;32509;47.750;-3.396;2023-07-13T13:40:44;21.20;99.90
46758;DHT22;32509;47.750;-3.396;2023-07-13T13:43:25;21.20;99.90
46758;DHT22;32509;47.750;-3.396;2023-07-13T13:45:57;21.20;99.90
46758;DHT22;32509;47.750;-3.396;2023-07-13T13:48:34;21.20;99.90
46758;DHT22;32509;47.750;-3.396;2023-07-13T13:51:06;21.10;99.90
46758;DHT22;32509;47.750;-3.396;2023-07-13T13:53:37;21.20;99.90
46758;DHT22;32509;47.750;-3.396;2023-07-13T13:56:04;21.20;99.90
46758;DHT22;32509;47.750;-3.396;2023-07-13T13:58:30;21.10;99.90
46758;DHT22;32509;47.750;-3.396;2023-07-13T14:00:56;21.20;99.90
46758;DHT22;32509;47.750;-3.396;2023-07-13T14:03:23;21.20;99.90
46758;DHT22;32509;47.750;-3.396;2023-07-13T14:05:49;21.20;99.90
46758;DHT22;32509;47.750;-3.396;2023-07-13T14:08:20;21.10;99.90
46758;DHT22;32509;47.750;-3.396;2023-07-13T14:10:48;21.10;99.90
46758;DHT22;32509;47.750;-3.396;2023-07-13T14:13:30;21.10;99.90
46758;DHT22;32509;47.750;-3.396;2023-07-13T14:15:57;21.10;99.90
46758;DHT22;32509;47.750;-3.396;2023-07-13T14:18:24;21.10;99.90
46758;DHT22;32509;47.750;-3.396;2023-07-13T14:20:50;21.10;99.90
46758;DHT22;32509;47.750;-3.396;2023-07-13T14:23:18;21.10;99.90
46758;DHT22;32509;47.750;-3.396;2023-07-13T14:25:46;21.20;99.90
46758;DHT22;32509;47.750;-3.396;2023-07-13T14:28:25;21.20;99.90
46758;DHT22;32509;47.750;-3.396;2023-07-13T14:30:53;21.10;99.90
46758;DHT22;32509;47.750;-3.396;2023-07-13T14:33:20;21.00;99.90
46758;DHT22;32509;47.750;-3.396;2023-07-13T14:35:46;21.00;99.90
46758;DHT22;32509;47.750;-3.396;2023-07-13T14:38:16;21.10;99.90
46758;DHT22;32509;47.750;-3.396;2023-07-13T14:40:43;21.10;99.90
46758;DHT22;32509;47.750;-3.396;2023-07-13T14:43:13;21.10;99.90
46758;DHT22;32509;47.750;-3.396;2023-07-13T14:45:48;21.10;99.90
46758;DHT22;32509;47.750;-3.396;2023-07-13T14:48:19;21.10;99.90
46758;DHT22;32509;47.750;-3.396;2023-07-13T14:50:46;21.20;99.90
46758;DHT22;32509;47.750;-3.396;2023-07-13T14:53:12;21.10;99.90
46758;DHT22;32509;47.750;-3.396;2023-07-13T14:55:39;21.10;99.90
46758;DHT22;32509;47.750;-3.396;2023-07-13T14:58:05;21.10;99.90
46758;DHT22;32509;47.750;-3.396;2023-07-13T15:00:31;21.00;99.90
46758;DHT22;32509;47.750;-3.396;2023-07-13T15:02:59;21.00;99.90
46758;DHT22;32509;47.750;-3.396;2023-07-13T15:05:31;21.00;99.90
46758;DHT22;32509;47.750;-3.396;2023-07-13T15:08:02;21.00;99.90
46758;DHT22;32509;47.750;-3.396;2023-07-13T15:10:30;21.00;99.90
46758;DHT22;32509;47.750;-3.396;2023-07-13T15:13:00;21.00;99.90
46758;DHT22;32509;47.750;-3.396;2023-07-13T15:15:28;21.00;99.90
46758;DHT22;32509;47.750;-3.396;2023-07-13T15:17:54;21.00;99.90
46758;DHT22;32509;47.750;-3.396;2023-07-13T15:20:33;21.10;99.90
46758;DHT22;32509;47.750;-3.396;2023-07-13T15:23:01;21.00;99.90
46758;DHT22;32509;47.750;-3.396;2023-07-13T15:25:29;21.00;99.90
46758;DHT22;32509;47.750;-3.396;2023-07-13T15:27:56;21.00;99.90
46758;DHT22;32509;47.750;-3.396;2023-07-13T15:30:27;21.10;99.90
46758;DHT22;32509;47.750;-3.396;2023-07-13T15:32:55;21.00;99.90
46758;DHT22;32509;47.750;-3.396;2023-07-13T15:35:25;21.00;99.90
46758;DHT22;32509;47.750;-3.396;2023-07-13T15:37:52;21.00;99.90
46758;DHT22;32509;47.750;-3.396;2023-07-13T15:40:18;21.00;99.90
46758;DHT22;32509;47.750;-3.396;2023-07-13T15:42:47;21.00;99.90
46758;DHT22;32509;47.750;-3.396;2023-07-13T15:45:21;21.00;99.90
46758;DHT22;32509;47.750;-3.396;2023-07-13T15:47:49;21.00;99.90
46758;DHT22;32509;47.750;-3.396;2023-07-13T15:50:19;21.00;99.90
46758;DHT22;32509;47.750;-3.396;2023-07-13T15:52:54;21.00;99.90